createdAt,value
2019-05-09T00:04:29.687Z,11.64
2019-05-09T00:10:41.634Z,11.64
2019-05-09T00:16:43.938Z,11.59
2019-05-09T00:22:49.816Z,11.52
2019-05-09T00:28:59.974Z,11.39
2019-05-09T00:35:23.392Z,11.29
2019-05-09T00:41:29.450Z,11.23
2019-05-09T00:47:35.288Z,11.27
2019-05-09T00:53:41.127Z,11.29
2019-05-09T00:59:47.732Z,11.32
2019-05-09T01:05:54.290Z,11.36
2019-05-09T01:12:00.224Z,11.36
2019-05-09T01:18:06.025Z,11.39
2019-05-09T01:24:13.869Z,11.38
2019-05-09T01:30:20.021Z,11.40
2019-05-09T01:36:27.551Z,11.39
2019-05-09T01:42:34.761Z,11.40
2019-05-09T01:48:43.024Z,11.34
2019-05-09T01:54:49.870Z,11.22
2019-05-09T02:00:55.835Z,11.10
2019-05-09T02:07:03.969Z,10.97
2019-05-09T02:13:09.421Z,10.84
2019-05-09T02:19:25.725Z,10.73
2019-05-09T02:25:33.500Z,10.59
2019-05-09T02:31:39.179Z,10.49
2019-05-09T02:37:45.151Z,10.40
2019-05-09T02:43:51.173Z,10.35
2019-05-09T02:49:58.996Z,10.34
2019-05-09T02:56:04.411Z,10.28
2019-05-09T03:02:29.087Z,10.13
2019-05-09T03:08:34.958Z,10.03
2019-05-09T03:14:41.212Z,9.95
2019-05-09T03:20:59.774Z,9.87
2019-05-09T03:27:11.176Z,9.77
2019-05-09T03:33:20.218Z,9.71
2019-05-09T03:39:24.585Z,9.66
2019-05-09T03:45:30.696Z,9.61
2019-05-09T03:51:37.896Z,9.54
2019-05-09T03:57:48.816Z,9.51
2019-05-09T04:03:54.739Z,9.47
2019-05-09T04:10:00.626Z,9.45
2019-05-09T04:16:09.014Z,9.34
2019-05-09T04:22:14.792Z,9.34
2019-05-09T04:28:20.798Z,9.34
2019-05-09T04:34:27.543Z,9.42
2019-05-09T04:40:37.683Z,9.46
2019-05-09T04:46:41.687Z,9.49
2019-05-09T04:52:47.603Z,9.61
2019-05-09T04:58:53.498Z,9.72
2019-05-09T05:04:59.439Z,9.83
2019-05-09T05:11:07.333Z,9.95
2019-05-09T05:17:12.872Z,10.04
2019-05-09T05:23:25.013Z,10.15
2019-05-09T05:29:30.825Z,10.30
2019-05-09T05:35:43.028Z,10.51
2019-05-09T05:41:49.804Z,10.86
2019-05-09T05:48:18.757Z,11.08
2019-05-09T05:54:24.637Z,11.28
2019-05-09T06:00:30.565Z,11.38
2019-05-09T06:06:37.473Z,11.39
2019-05-09T06:12:43.489Z,11.54
2019-05-09T06:18:49.592Z,11.80
2019-05-09T06:24:58.103Z,12.02
2019-05-09T06:31:03.888Z,12.25
2019-05-09T06:37:10.125Z,12.43
2019-05-09T06:43:24.508Z,12.51
2019-05-09T06:49:37.545Z,12.58
2019-05-09T06:55:43.449Z,12.73
2019-05-09T07:02:08.075Z,12.70
2019-05-09T07:08:27.427Z,12.69
2019-05-09T07:14:38.215Z,12.77
2019-05-09T07:20:43.624Z,12.84
2019-05-09T07:26:49.389Z,12.90
2019-05-09T07:33:05.465Z,12.98
2019-05-09T07:39:11.290Z,13.10
2019-05-09T07:45:18.045Z,13.12
2019-05-09T07:51:24.674Z,13.25
2019-05-09T07:57:30.434Z,13.48
2019-05-09T08:03:38.492Z,13.72
2019-05-09T08:09:44.059Z,13.96
2019-05-09T08:15:49.861Z,14.22
2019-05-09T08:21:57.490Z,14.44
2019-05-09T08:28:03.301Z,14.58
2019-05-09T08:34:09.278Z,14.68
2019-05-09T08:40:15.314Z,14.89
2019-05-09T08:46:21.443Z,14.92
2019-05-09T08:52:28.770Z,14.90
2019-05-09T08:58:34.674Z,15.01
2019-05-09T09:04:40.570Z,15.08
2019-05-09T09:10:48.822Z,15.51
2019-05-09T09:16:54.066Z,15.92
2019-05-09T09:23:01.004Z,16.15
2019-05-09T09:29:08.445Z,16.49
2019-05-09T09:35:14.545Z,16.66
2019-05-09T09:41:20.505Z,16.70
2019-05-09T09:47:28.573Z,16.85
2019-05-09T09:53:34.323Z,17.06
2019-05-09T09:59:49.633Z,17.45
2019-05-09T10:05:53.784Z,17.42
2019-05-09T10:12:00.693Z,17.28
2019-05-09T10:18:13.641Z,17.43
2019-05-09T10:24:19.457Z,17.65
2019-05-09T10:30:33.946Z,17.65
2019-05-09T10:36:39.782Z,17.73
2019-05-09T10:43:00.172Z,17.80
2019-05-09T10:49:08.299Z,17.93
2019-05-09T10:55:14.453Z,18.27
2019-05-09T11:01:20.951Z,18.47
2019-05-09T11:07:29.023Z,18.67
2019-05-09T11:13:34.665Z,18.76
2019-05-09T11:19:40.889Z,18.44
2019-05-09T11:25:47.522Z,18.50
2019-05-09T11:31:53.450Z,18.73
2019-05-09T11:37:59.739Z,18.43
2019-05-09T11:44:08.562Z,18.10
2019-05-09T11:50:18.996Z,17.97
2019-05-09T11:56:23.318Z,17.87
2019-05-09T12:02:30.190Z,17.70
2019-05-09T12:08:38.574Z,17.63
2019-05-09T12:14:48.328Z,17.64
2019-05-09T12:20:53.689Z,18.00
2019-05-09T12:27:02.852Z,18.37
2019-05-09T12:33:08.582Z,18.82
2019-05-09T12:39:14.817Z,19.13
2019-05-09T12:45:20.775Z,19.57
2019-05-09T12:51:28.289Z,19.79
2019-05-09T12:57:34.129Z,19.84
2019-05-09T13:03:40.264Z,19.73
2019-05-09T13:09:52.211Z,19.79
2019-05-09T13:16:14.256Z,19.64
2019-05-09T13:22:20.228Z,19.45
2019-05-09T13:28:26.077Z,19.26
2019-05-09T13:34:32.205Z,19.23
2019-05-09T13:40:38.257Z,19.01
2019-05-09T13:46:44.079Z,18.79
2019-05-09T13:52:50.021Z,18.75
2019-05-09T13:58:57.896Z,18.96
2019-05-09T14:05:03.952Z,19.26
2019-05-09T14:11:09.824Z,19.63
2019-05-09T14:17:18.738Z,20.01
2019-05-09T14:23:24.101Z,20.02
2019-05-09T14:29:31.547Z,19.57
2019-05-09T14:35:38.702Z,19.23
2019-05-09T14:41:47.115Z,18.89
2019-05-09T14:47:52.596Z,18.78
2019-05-09T14:53:59.622Z,18.69
2019-05-09T15:00:07.810Z,18.70
2019-05-09T15:06:14.106Z,19.01
2019-05-09T15:12:20.170Z,20.32
2019-05-09T15:18:26.176Z,21.20
2019-05-09T15:24:32.241Z,21.69
2019-05-09T15:30:38.632Z,21.80
2019-05-09T15:36:44.941Z,22.11
2019-05-09T15:42:51.251Z,22.03
2019-05-09T15:48:58.277Z,22.43
2019-05-09T15:55:04.400Z,22.39
2019-05-09T16:01:10.550Z,22.12
2019-05-09T16:07:17.887Z,22.32
2019-05-09T16:13:23.988Z,21.43
2019-05-09T16:19:29.730Z,20.56
2019-05-09T16:25:35.622Z,20.98
2019-05-09T16:31:41.491Z,21.74
2019-05-09T16:38:00.369Z,21.83
2019-05-09T16:43:58.370Z,21.80
2019-05-09T16:50:04.783Z,20.87
2019-05-09T16:56:11.178Z,20.40
2019-05-09T17:02:24.300Z,20.02
2019-05-09T17:08:28.319Z,19.73
2019-05-09T17:14:34.640Z,19.36
2019-05-09T17:20:51.011Z,19.28
2019-05-09T17:26:58.023Z,19.13
2019-05-09T17:33:04.507Z,18.91
2019-05-09T17:39:10.611Z,18.77
2019-05-09T17:45:16.829Z,18.53
2019-05-09T17:51:33.155Z,18.22
2019-05-09T17:57:30.840Z,18.09
2019-05-09T18:03:38.484Z,18.11
2019-05-09T18:09:44.733Z,18.21
2019-05-09T18:15:50.491Z,18.32
2019-05-09T18:21:57.801Z,18.25
2019-05-09T18:28:04.521Z,18.04
2019-05-09T18:34:10.592Z,17.84
2019-05-09T18:40:18.027Z,17.64
2019-05-09T18:46:24.087Z,17.36
2019-05-09T18:52:29.865Z,17.15
2019-05-09T18:58:36.481Z,16.97
2019-05-09T19:04:42.906Z,16.80
2019-05-09T19:10:52.140Z,16.86
2019-05-09T19:17:18.292Z,16.49
2019-05-09T19:23:24.276Z,15.63
2019-05-09T19:29:30.247Z,15.17
2019-05-09T19:35:36.287Z,14.72
2019-05-09T19:41:42.145Z,14.43
2019-05-09T19:47:48.465Z,14.29
2019-05-09T19:53:54.427Z,14.06
2019-05-09T20:00:00.355Z,14.03
2019-05-09T20:06:06.779Z,13.92
2019-05-09T20:12:21.360Z,13.90
2019-05-09T20:18:27.533Z,13.80
2019-05-09T20:24:33.947Z,13.87
2019-05-09T20:30:39.897Z,13.75
2019-05-09T20:36:46.678Z,13.76
2019-05-09T20:42:52.604Z,13.75
2019-05-09T20:48:59.060Z,13.67
2019-05-09T20:55:05.160Z,13.59
2019-05-09T21:01:11.092Z,13.56
2019-05-09T21:07:17.551Z,13.44
2019-05-09T21:13:23.630Z,13.37
2019-05-09T21:19:29.640Z,13.25
2019-05-09T21:25:35.980Z,13.23
2019-05-09T21:31:41.921Z,13.24
2019-05-09T21:37:48.475Z,13.23
2019-05-09T21:43:54.339Z,13.13
2019-05-09T21:50:00.098Z,13.09
2019-05-09T21:56:05.874Z,13.10
2019-05-09T22:02:12.031Z,13.11
2019-05-09T22:08:18.523Z,13.18
2019-05-09T22:14:24.336Z,13.18
2019-05-09T22:20:30.140Z,13.19
2019-05-09T22:26:35.943Z,13.14
2019-05-09T22:32:41.696Z,13.14
2019-05-09T22:38:47.490Z,13.08
2019-05-09T22:44:53.247Z,13.06
2019-05-09T22:50:58.992Z,12.96
2019-05-09T22:57:04.706Z,12.92
2019-05-09T23:03:10.467Z,12.83
2019-05-09T23:09:16.209Z,12.76
2019-05-09T23:15:22.680Z,12.74
2019-05-09T23:21:30.005Z,12.64
2019-05-09T23:27:35.786Z,12.60
2019-05-09T23:33:42.934Z,12.54
2019-05-09T23:39:49.071Z,12.38
2019-05-09T23:45:54.765Z,12.33
2019-05-09T23:52:00.484Z,12.33
2019-05-09T23:58:23.865Z,12.33
